Walkerton, Canada
Current Conditions -  °F | °C
As of 11:00 AM on Sunday 23 Nov 2014 (Local Time) from CYVV Reporting Station
Haze Haze  
Wind Chill: 35°   Ceiling: 1800
Heat Index: 43°   Visibility: 6mi
Dew Point: 39°   Wind: 15mph
Humidity: 87%   Direction: 180°S
Pressure: 29.89"   Gusts: NA
Location:  44.13°N, 81.15°W
Report Text: CYVV 231600Z 18013KT 6SM BR OVC018 06/04 A2989 RMK SC8 SLP126
Loading
Personal Weather Stations






























Interactive Weather Map New forecast layout! Learn more

10-Day Weather Forecast

Advertisements
Track Severe Weather on mobile